Brive-Souillac

LFSL · Corrèze, Nouvelle-Aquitaine, 法国

2023年1月28日 13:002023年1月28日 22:00有效
时间
星期六
13:00
星期六
14:00
星期六
15:00
星期六
16:00
星期六
17:00
星期六
18:00
星期六
19:00
星期六
20:00
星期六
21:00
代码
VFR
VFR
VFR
VFR
VFR
VFR
VFR
VFR
VFR
天气
碎云
碎云
碎云
碎云
碎云
碎云
碎云
碎云
碎云
能见度
10 km+
10 km+
10 km+
10 km+
10 km+
10 km+
10 km+
10 km+
10 km+
天花板
3.000 ft
3.000 ft
3.000 ft
3.000 ft
3.000 ft
3.000 ft
3.000 ft
3.000 ft
3.000 ft
360°
360°
360°
360°
360°
360°
360°
360°
360°
360°
360°
360°
360°
360°
360°
360°
360°
360°
速度
5 kt
5 kt
5 kt
5 kt
5 kt
5 kt
5 kt
5 kt
5 kt
阵风
温度/星期日
17:55

原版的

TAF LFSL 281100Z 2812/2821 36005KT 9999 OVC030

TAF Brive-Souillac

Brive-Souillac是,法国中的中型机场。 该机场有一条跑道: 11/29. 该领域的国际民航组织标志是LFSL 它的国际航空运输协会代码是BVE.

这份报告是针对2023年1月28日 12:00, 当地时间在Brive-Souillac进行的。 从2023年1月28日 13:00到2023年1月28日 22:00, 当地时间有效.

预报

  • 在星期六 13:00和22:00之间

    • 风: 风来自360°方向,速度为5 kt。
    • 能见度: 10 km 或者更多
    • 乌云: 乌云密布在3.000 ft的高度.

白天

今天,太阳从08:18升起,在17:55降落。 这适用于Brive-Souillac,世界夏令时可能有所不同。 当地时间与世界标准时间之间的时差为+1 小时。 当前,没有夏令时有效。

我们和第三方通过cookies跟踪您在我们网站上的互联网行为。如果你继续,我们认为你同意我们的饼干政策